sensor_id;sensor_type;location;lat;lon;timestamp;pressure;altitude;pressure_sealevel;temperature;humidity
55490;BME280;44029;52.956;4.772;2023-07-02T00:00:19;100650.72;;;21.09;100.00
55490;BME280;44029;52.956;4.772;2023-07-02T00:02:45;100654.97;;;21.06;100.00
55490;BME280;44029;52.956;4.772;2023-07-02T00:05:10;100648.56;;;21.05;100.00
55490;BME280;44029;52.956;4.772;2023-07-02T00:07:36;100651.34;;;20.97;100.00
55490;BME280;44029;52.956;4.772;2023-07-02T00:10:02;100647.91;;;21.00;100.00
55490;BME280;44029;52.956;4.772;2023-07-02T00:12:28;100653.16;;;20.93;100.00
55490;BME280;44029;52.956;4.772;2023-07-02T00:14:53;100641.03;;;20.89;100.00
55490;BME280;44029;52.956;4.772;2023-07-02T00:17:19;100642.78;;;20.76;100.00
55490;BME280;44029;52.956;4.772;2023-07-02T00:19:44;100636.63;;;20.47;100.00
55490;BME280;44029;52.956;4.772;2023-07-02T00:22:12;100630.50;;;20.28;100.00
55490;BME280;44029;52.956;4.772;2023-07-02T00:24:37;100638.75;;;20.42;100.00
55490;BME280;44029;52.956;4.772;2023-07-02T00:27:03;100620.03;;;20.34;100.00
55490;BME280;44029;52.956;4.772;2023-07-02T00:29:28;100631.88;;;20.48;100.00
55490;BME280;44029;52.956;4.772;2023-07-02T00:31:54;100637.75;;;20.46;100.00
55490;BME280;44029;52.956;4.772;2023-07-02T00:34:19;100634.75;;;20.25;100.00
55490;BME280;44029;52.956;4.772;2023-07-02T00:36:45;100625.78;;;20.28;100.00
55490;BME280;44029;52.956;4.772;2023-07-02T00:39:11;100619.00;;;20.12;100.00
55490;BME280;44029;52.956;4.772;2023-07-02T00:41:41;100630.78;;;20.18;100.00
55490;BME280;44029;52.956;4.772;2023-07-02T00:44:07;100624.94;;;19.97;100.00
55490;BME280;44029;52.956;4.772;2023-07-02T00:46:34;100638.34;;;19.95;100.00
55490;BME280;44029;52.956;4.772;2023-07-02T00:49:02;100632.97;;;19.98;100.00
55490;BME280;44029;52.956;4.772;2023-07-02T00:51:29;100625.91;;;19.92;100.00
55490;BME280;44029;52.956;4.772;2023-07-02T00:53:57;100621.41;;;20.05;100.00
55490;BME280;44029;52.956;4.772;2023-07-02T00:56:25;100628.94;;;20.04;100.00
55490;BME280;44029;52.956;4.772;2023-07-02T00:58:54;100637.34;;;19.91;100.00
55490;BME280;44029;52.956;4.772;2023-07-02T01:01:24;100635.34;;;19.82;100.00
55490;BME280;44029;52.956;4.772;2023-07-02T01:03:56;100639.38;;;19.76;100.00
55490;BME280;44029;52.956;4.772;2023-07-02T01:06:35;100617.84;;;19.82;100.00
55490;BME280;44029;52.956;4.772;2023-07-02T01:09:05;100625.69;;;19.80;100.00
55490;BME280;44029;52.956;4.772;2023-07-02T01:14:11;100628.38;;;19.71;100.00
55490;BME280;44029;52.956;4.772;2023-07-02T01:16:38;100626.09;;;19.28;100.00
55490;BME280;44029;52.956;4.772;2023-07-02T01:19:11;100628.94;;;19.59;100.00
55490;BME280;44029;52.956;4.772;2023-07-02T01:21:37;100628.19;;;19.45;100.00
55490;BME280;44029;52.956;4.772;2023-07-02T01:24:04;100635.72;;;19.44;100.00
55490;BME280;44029;52.956;4.772;2023-07-02T01:26:31;100626.25;;;19.45;100.00
55490;BME280;44029;52.956;4.772;2023-07-02T01:29:12;100635.78;;;19.30;100.00
55490;BME280;44029;52.956;4.772;2023-07-02T01:31:38;100642.94;;;19.09;100.00
55490;BME280;44029;52.956;4.772;2023-07-02T01:34:03;100637.59;;;19.35;100.00
55490;BME280;44029;52.956;4.772;2023-07-02T01:36:30;100642.91;;;19.45;100.00
55490;BME280;44029;52.956;4.772;2023-07-02T01:38:55;100643.03;;;19.40;100.00
55490;BME280;44029;52.956;4.772;2023-07-02T01:41:20;100643.25;;;19.30;100.00
55490;BME280;44029;52.956;4.772;2023-07-02T01:43:46;100644.66;;;19.41;100.00
55490;BME280;44029;52.956;4.772;2023-07-02T01:46:11;100649.50;;;19.36;100.00
55490;BME280;44029;52.956;4.772;2023-07-02T01:48:37;100634.25;;;19.47;100.00
55490;BME280;44029;52.956;4.772;2023-07-02T01:51:02;100640.25;;;19.18;100.00
55490;BME280;44029;52.956;4.772;2023-07-02T01:53:28;100640.25;;;19.40;100.00
55490;BME280;44029;52.956;4.772;2023-07-02T01:55:53;100644.47;;;19.38;100.00
55490;BME280;44029;52.956;4.772;2023-07-02T01:58:18;100640.13;;;19.45;100.00
55490;BME280;44029;52.956;4.772;2023-07-02T02:00:45;100634.22;;;19.24;100.00
55490;BME280;44029;52.956;4.772;2023-07-02T02:03:10;100647.09;;;19.57;100.00
55490;BME280;44029;52.956;4.772;2023-07-02T02:05:36;100638.56;;;19.53;100.00
55490;BME280;44029;52.956;4.772;2023-07-02T02:08:01;100646.91;;;19.53;100.00
55490;BME280;44029;52.956;4.772;2023-07-02T02:10:27;100645.88;;;19.49;100.00
55490;BME280;44029;52.956;4.772;2023-07-02T02:12:52;100654.97;;;19.41;100.00
55490;BME280;44029;52.956;4.772;2023-07-02T02:15:17;100638.16;;;19.23;100.00
55490;BME280;44029;52.956;4.772;2023-07-02T02:17:43;100648.19;;;19.10;100.00
55490;BME280;44029;52.956;4.772;2023-07-02T02:20:08;100642.06;;;19.45;100.00
55490;BME280;44029;52.956;4.772;2023-07-02T02:22:34;100641.16;;;19.13;100.00
55490;BME280;44029;52.956;4.772;2023-07-02T02:25:00;100640.28;;;19.26;100.00
55490;BME280;44029;52.956;4.772;2023-07-02T02:27:25;100657.09;;;19.21;100.00
55490;BME280;44029;52.956;4.772;2023-07-02T02:29:50;100649.28;;;19.23;100.00
55490;BME280;44029;52.956;4.772;2023-07-02T02:32:16;100658.41;;;19.24;100.00
55490;BME280;44029;52.956;4.772;2023-07-02T02:34:44;100657.47;;;19.28;100.00
55490;BME280;44029;52.956;4.772;2023-07-02T02:37:10;100659.28;;;19.10;100.00
55490;BME280;44029;52.956;4.772;2023-07-02T02:39:35;100660.19;;;19.06;100.00
55490;BME280;44029;52.956;4.772;2023-07-02T02:42:00;100668.56;;;18.92;100.00
55490;BME280;44029;52.956;4.772;2023-07-02T02:44:26;100657.25;;;18.88;100.00
55490;BME280;44029;52.956;4.772;2023-07-02T02:46:51;100659.19;;;19.02;100.00
55490;BME280;44029;52.956;4.772;2023-07-02T02:49:16;100668.44;;;19.11;100.00
55490;BME280;44029;52.956;4.772;2023-07-02T02:51:42;100669.19;;;19.03;100.00
55490;BME280;44029;52.956;4.772;2023-07-02T02:54:08;100663.94;;;18.87;100.00
55490;BME280;44029;52.956;4.772;2023-07-02T02:56:33;100668.38;;;18.88;100.00
55490;BME280;44029;52.956;4.772;2023-07-02T02:58:58;100664.56;;;18.84;100.00
55490;BME280;44029;52.956;4.772;2023-07-02T03:01:24;100662.28;;;18.72;100.00
55490;BME280;44029;52.956;4.772;2023-07-02T03:03:53;100663.94;;;18.87;100.00
55490;BME280;44029;52.956;4.772;2023-07-02T03:06:18;100658.09;;;18.75;100.00
55490;BME280;44029;52.956;4.772;2023-07-02T03:08:44;100671.53;;;18.68;100.00
55490;BME280;44029;52.956;4.772;2023-07-02T03:11:09;100664.13;;;18.63;100.00
55490;BME280;44029;52.956;4.772;2023-07-02T03:13:35;100665.91;;;18.87;100.00
55490;BME280;44029;52.956;4.772;2023-07-02T03:16:00;100658.78;;;19.08;100.00
55490;BME280;44029;52.956;4.772;2023-07-02T03:18:25;100657.56;;;18.87;100.00
55490;BME280;44029;52.956;4.772;2023-07-02T03:20:51;100671.75;;;18.71;100.00
55490;BME280;44029;52.956;4.772;2023-07-02T03:23:16;100668.78;;;18.68;100.00
55490;BME280;44029;52.956;4.772;2023-07-02T03:25:42;100665.28;;;18.90;100.00
55490;BME280;44029;52.956;4.772;2023-07-02T03:28:07;100672.38;;;18.96;100.00
55490;BME280;44029;52.956;4.772;2023-07-02T03:30:32;100667.66;;;18.83;100.00
55490;BME280;44029;52.956;4.772;2023-07-02T03:32:58;100680.78;;;19.05;100.00
55490;BME280;44029;52.956;4.772;2023-07-02T03:35:23;100672.16;;;18.92;100.00
55490;BME280;44029;52.956;4.772;2023-07-02T03:37:48;100673.38;;;19.00;100.00
55490;BME280;44029;52.956;4.772;2023-07-02T03:40:14;100675.34;;;18.86;100.00
55490;BME280;44029;52.956;4.772;2023-07-02T03:42:39;100688.19;;;18.82;100.00
55490;BME280;44029;52.956;4.772;2023-07-02T03:45:05;100687.56;;;18.99;100.00
55490;BME280;44029;52.956;4.772;2023-07-02T03:47:30;100684.38;;;18.78;100.00
55490;BME280;44029;52.956;4.772;2023-07-02T03:49:56;100681.44;;;18.88;100.00
55490;BME280;44029;52.956;4.772;2023-07-02T03:52:21;100697.50;;;19.13;100.00
55490;BME280;44029;52.956;4.772;2023-07-02T03:54:46;100683.41;;;19.60;100.00
55490;BME280;44029;52.956;4.772;2023-07-02T03:57:12;100687.75;;;19.53;100.00
55490;BME280;44029;52.956;4.772;2023-07-02T03:59:37;100680.16;;;19.67;100.00
55490;BME280;44029;52.956;4.772;2023-07-02T04:02:03;100690.16;;;20.13;100.00
55490;BME280;44029;52.956;4.772;2023-07-02T04:04:29;100696.88;;;19.89;100.00
55490;BME280;44029;52.956;4.772;2023-07-02T04:06:54;100696.94;;;19.76;100.00
55490;BME280;44029;52.956;4.772;2023-07-02T04:09:19;100697.50;;;19.13;100.00
55490;BME280;44029;52.956;4.772;2023-07-02T04:11:45;100702.63;;;19.34;100.00
55490;BME280;44029;52.956;4.772;2023-07-02T04:14:10;100706.78;;;19.09;100.00
55490;BME280;44029;52.956;4.772;2023-07-02T04:16:36;100715.72;;;19.20;100.00
55490;BME280;44029;52.956;4.772;2023-07-02T04:19:01;100715.13;;;18.95;100.00
55490;BME280;44029;52.956;4.772;2023-07-02T04:21:26;100715.06;;;19.37;100.00
55490;BME280;44029;52.956;4.772;2023-07-02T04:23:52;100720.56;;;19.14;100.00
55490;BME280;44029;52.956;4.772;2023-07-02T04:26:17;100717.84;;;19.23;100.00
55490;BME280;44029;52.956;4.772;2023-07-02T04:28:43;100710.72;;;20.03;100.00
55490;BME280;44029;52.956;4.772;2023-07-02T04:31:08;100724.03;;;20.15;100.00
55490;BME280;44029;52.956;4.772;2023-07-02T04:33:34;100711.53;;;20.35;100.00
55490;BME280;44029;52.956;4.772;2023-07-02T04:36:04;100710.41;;;20.05;100.00
55490;BME280;44029;52.956;4.772;2023-07-02T04:38:29;100713.41;;;19.72;100.00
55490;BME280;44029;52.956;4.772;2023-07-02T04:40:54;100709.81;;;19.94;100.00
55490;BME280;44029;52.956;4.772;2023-07-02T04:43:22;100705.41;;;20.24;100.00
55490;BME280;44029;52.956;4.772;2023-07-02T04:45:48;100708.19;;;20.47;100.00
55490;BME280;44029;52.956;4.772;2023-07-02T04:48:14;100716.88;;;20.23;100.00
55490;BME280;44029;52.956;4.772;2023-07-02T04:50:39;100714.38;;;20.75;100.00
55490;BME280;44029;52.956;4.772;2023-07-02T04:53:05;100724.69;;;20.83;100.00
55490;BME280;44029;52.956;4.772;2023-07-02T04:55:30;100716.59;;;20.33;100.00
55490;BME280;44029;52.956;4.772;2023-07-02T04:57:55;100713.38;;;20.40;100.00
55490;BME280;44029;52.956;4.772;2023-07-02T05:00:21;100713.31;;;20.00;100.00
55490;BME280;44029;52.956;4.772;2023-07-02T05:02:47;100723.84;;;19.89;100.00
55490;BME280;44029;52.956;4.772;2023-07-02T05:05:12;100721.75;;;19.95;100.00
55490;BME280;44029;52.956;4.772;2023-07-02T05:07:40;100726.63;;;20.43;100.00
55490;BME280;44029;52.956;4.772;2023-07-02T05:10:06;100723.91;;;20.20;100.00
55490;BME280;44029;52.956;4.772;2023-07-02T05:12:32;100725.53;;;20.84;100.00
55490;BME280;44029;52.956;4.772;2023-07-02T05:14:57;100738.31;;;20.54;100.00
55490;BME280;44029;52.956;4.772;2023-07-02T05:17:23;100738.28;;;20.14;100.00
55490;BME280;44029;52.956;4.772;2023-07-02T05:19:48;100738.13;;;19.74;100.00
55490;BME280;44029;52.956;4.772;2023-07-02T05:22:14;100728.59;;;19.88;100.00
55490;BME280;44029;52.956;4.772;2023-07-02T05:24:39;100745.66;;;19.73;100.00
55490;BME280;44029;52.956;4.772;2023-07-02T05:27:06;100737.41;;;19.68;100.00
55490;BME280;44029;52.956;4.772;2023-07-02T05:29:31;100743.25;;;20.03;100.00
55490;BME280;44029;52.956;4.772;2023-07-02T05:31:56;100748.31;;;20.55;100.00
55490;BME280;44029;52.956;4.772;2023-07-02T05:34:22;100748.38;;;20.32;100.00
55490;BME280;44029;52.956;4.772;2023-07-02T05:36:47;100755.69;;;20.59;100.00
55490;BME280;44029;52.956;4.772;2023-07-02T05:39:13;100742.56;;;20.51;100.00
55490;BME280;44029;52.956;4.772;2023-07-02T05:41:38;100755.41;;;19.84;100.00
55490;BME280;44029;52.956;4.772;2023-07-02T05:44:03;100758.56;;;20.45;100.00
55490;BME280;44029;52.956;4.772;2023-07-02T05:46:29;100759.09;;;20.79;100.00
55490;BME280;44029;52.956;4.772;2023-07-02T05:48:54;100758.53;;;20.37;100.00
55490;BME280;44029;52.956;4.772;2023-07-02T05:51:23;100757.03;;;20.93;100.00
55490;BME280;44029;52.956;4.772;2023-07-02T05:53:50;100753.03;;;20.85;100.00
55490;BME280;44029;52.956;4.772;2023-07-02T05:56:16;100764.53;;;20.93;100.00
55490;BME280;44029;52.956;4.772;2023-07-02T05:58:41;100753.22;;;21.81;100.00
55490;BME280;44029;52.956;4.772;2023-07-02T06:01:07;100750.31;;;22.98;100.00
55490;BME280;44029;52.956;4.772;2023-07-02T06:03:32;100754.72;;;24.35;100.00
55490;BME280;44029;52.956;4.772;2023-07-02T06:05:58;100750.94;;;25.13;98.52
55490;BME280;44029;52.956;4.772;2023-07-02T06:08:23;100754.56;;;25.51;97.13
55490;BME280;44029;52.956;4.772;2023-07-02T06:10:49;100757.16;;;26.56;91.45
55490;BME280;44029;52.956;4.772;2023-07-02T06:13:15;100766.28;;;25.16;92.70
55490;BME280;44029;52.956;4.772;2023-07-02T06:15:40;100761.13;;;24.35;100.00
55490;BME280;44029;52.956;4.772;2023-07-02T06:18:06;100780.13;;;22.86;100.00
55490;BME280;44029;52.956;4.772;2023-07-02T06:20:31;100785.38;;;22.87;100.00
55490;BME280;44029;52.956;4.772;2023-07-02T06:22:57;100770.25;;;24.11;100.00
55490;BME280;44029;52.956;4.772;2023-07-02T06:25:22;100766.00;;;25.58;98.02
55490;BME280;44029;52.956;4.772;2023-07-02T06:27:48;100781.38;;;24.20;100.00
55490;BME280;44029;52.956;4.772;2023-07-02T06:30:13;100763.56;;;26.25;94.24
55490;BME280;44029;52.956;4.772;2023-07-02T06:32:38;100781.84;;;27.27;78.90
55490;BME280;44029;52.956;4.772;2023-07-02T06:35:04;100774.69;;;26.81;87.37
55490;BME280;44029;52.956;4.772;2023-07-02T06:37:31;100776.84;;;25.59;89.36
55490;BME280;44029;52.956;4.772;2023-07-02T06:39:57;100781.06;;;24.67;100.00
55490;BME280;44029;52.956;4.772;2023-07-02T06:42:24;100781.22;;;23.83;100.00
55490;BME280;44029;52.956;4.772;2023-07-02T06:44:49;100784.47;;;25.46;98.13
55490;BME280;44029;52.956;4.772;2023-07-02T06:47:15;100780.59;;;26.76;89.64
55490;BME280;44029;52.956;4.772;2023-07-02T06:49:40;100779.09;;;26.51;85.12
55490;BME280;44029;52.956;4.772;2023-07-02T06:52:05;100791.28;;;25.21;93.25
55490;BME280;44029;52.956;4.772;2023-07-02T06:54:31;100811.31;;;23.86;100.00
55490;BME280;44029;52.956;4.772;2023-07-02T06:56:56;100808.16;;;23.07;100.00
55490;BME280;44029;52.956;4.772;2023-07-02T06:59:22;100812.81;;;22.85;100.00
55490;BME280;44029;52.956;4.772;2023-07-02T07:01:49;100817.50;;;22.64;100.00
55490;BME280;44029;52.956;4.772;2023-07-02T07:04:14;100828.25;;;22.91;100.00
55490;BME280;44029;52.956;4.772;2023-07-02T07:06:39;100830.13;;;22.70;100.00
55490;BME280;44029;52.956;4.772;2023-07-02T07:09:05;100828.38;;;21.87;100.00
55490;BME280;44029;52.956;4.772;2023-07-02T07:11:30;100826.38;;;22.48;100.00
55490;BME280;44029;52.956;4.772;2023-07-02T07:13:56;100835.69;;;21.48;100.00
55490;BME280;44029;52.956;4.772;2023-07-02T07:16:21;100827.38;;;21.16;100.00
55490;BME280;44029;52.956;4.772;2023-07-02T07:18:47;100832.81;;;22.14;100.00
55490;BME280;44029;52.956;4.772;2023-07-02T07:21:13;100827.06;;;21.84;100.00
55490;BME280;44029;52.956;4.772;2023-07-02T07:23:39;100832.41;;;22.76;100.00
55490;BME280;44029;52.956;4.772;2023-07-02T07:26:05;100838.31;;;22.75;100.00
55490;BME280;44029;52.956;4.772;2023-07-02T07:28:30;100834.06;;;24.72;100.00
55490;BME280;44029;52.956;4.772;2023-07-02T07:30:56;100835.84;;;24.43;99.10
55490;BME280;44029;52.956;4.772;2023-07-02T07:33:21;100826.78;;;25.04;99.28
55490;BME280;44029;52.956;4.772;2023-07-02T07:35:47;100841.72;;;26.23;92.79
55490;BME280;44029;52.956;4.772;2023-07-02T07:38:15;100843.53;;;25.91;95.28
55490;BME280;44029;52.956;4.772;2023-07-02T07:40:41;100853.31;;;23.77;100.00
55490;BME280;44029;52.956;4.772;2023-07-02T07:43:07;100849.44;;;23.40;100.00
55490;BME280;44029;52.956;4.772;2023-07-02T07:45:33;100857.34;;;22.82;100.00
55490;BME280;44029;52.956;4.772;2023-07-02T07:47:58;100856.66;;;23.41;100.00
55490;BME280;44029;52.956;4.772;2023-07-02T07:50:24;100863.41;;;23.40;100.00
55490;BME280;44029;52.956;4.772;2023-07-02T07:52:49;100863.25;;;23.06;100.00
55490;BME280;44029;52.956;4.772;2023-07-02T07:55:16;100872.09;;;23.47;100.00
55490;BME280;44029;52.956;4.772;2023-07-02T07:57:42;100861.94;;;24.56;100.00
55490;BME280;44029;52.956;4.772;2023-07-02T08:00:08;100867.94;;;23.23;100.00
55490;BME280;44029;52.956;4.772;2023-07-02T08:02:37;100875.03;;;24.43;100.00
55490;BME280;44029;52.956;4.772;2023-07-02T08:05:03;100871.72;;;23.78;100.00
55490;BME280;44029;52.956;4.772;2023-07-02T08:07:29;100875.78;;;24.86;100.00
55490;BME280;44029;52.956;4.772;2023-07-02T08:09:54;100874.38;;;25.38;95.57
55490;BME280;44029;52.956;4.772;2023-07-02T08:12:19;100881.13;;;24.79;96.32
55490;BME280;44029;52.956;4.772;2023-07-02T08:14:45;100880.41;;;24.69;100.00
55490;BME280;44029;52.956;4.772;2023-07-02T08:17:10;100881.22;;;24.16;100.00
55490;BME280;44029;52.956;4.772;2023-07-02T08:19:36;100887.06;;;25.23;99.55
55490;BME280;44029;52.956;4.772;2023-07-02T08:22:01;100887.41;;;25.21;98.20
55490;BME280;44029;52.956;4.772;2023-07-02T08:24:28;100897.31;;;24.40;100.00
55490;BME280;44029;52.956;4.772;2023-07-02T08:26:53;100896.91;;;25.29;100.00
55490;BME280;44029;52.956;4.772;2023-07-02T08:29:19;100890.41;;;24.58;100.00
55490;BME280;44029;52.956;4.772;2023-07-02T08:31:44;100885.41;;;25.83;97.87
55490;BME280;44029;52.956;4.772;2023-07-02T08:34:09;100885.44;;;25.96;97.47
55490;BME280;44029;52.956;4.772;2023-07-02T08:36:35;100889.66;;;26.71;93.18
55490;BME280;44029;52.956;4.772;2023-07-02T08:39:00;100886.97;;;25.93;97.96
55490;BME280;44029;52.956;4.772;2023-07-02T08:41:25;100895.28;;;24.95;97.84
55490;BME280;44029;52.956;4.772;2023-07-02T08:43:55;100890.16;;;26.20;97.94
55490;BME280;44029;52.956;4.772;2023-07-02T08:46:20;100899.25;;;25.39;98.14
55490;BME280;44029;52.956;4.772;2023-07-02T08:48:46;100896.16;;;26.47;93.96
55490;BME280;44029;52.956;4.772;2023-07-02T08:51:12;100888.63;;;27.55;86.67
55490;BME280;44029;52.956;4.772;2023-07-02T08:53:38;100901.66;;;27.63;81.88
55490;BME280;44029;52.956;4.772;2023-07-02T08:56:03;100897.75;;;27.68;78.80
55490;BME280;44029;52.956;4.772;2023-07-02T08:58:29;100904.75;;;28.09;74.99
55490;BME280;44029;52.956;4.772;2023-07-02T09:01:08;100904.72;;;28.45;75.40
55490;BME280;44029;52.956;4.772;2023-07-02T09:03:34;100902.81;;;27.78;81.37
55490;BME280;44029;52.956;4.772;2023-07-02T09:05:59;100900.81;;;27.94;81.18
55490;BME280;44029;52.956;4.772;2023-07-02T09:08:28;100900.44;;;27.96;80.38
55490;BME280;44029;52.956;4.772;2023-07-02T09:10:54;100926.66;;;27.33;86.90
55490;BME280;44029;52.956;4.772;2023-07-02T09:13:20;100919.59;;;25.61;94.42
55490;BME280;44029;52.956;4.772;2023-07-02T09:15:45;100919.13;;;26.36;95.01
55490;BME280;44029;52.956;4.772;2023-07-02T09:18:21;100918.31;;;26.92;87.24
55490;BME280;44029;52.956;4.772;2023-07-02T09:20:53;100919.22;;;25.62;93.77
55490;BME280;44029;52.956;4.772;2023-07-02T09:23:20;100929.56;;;25.13;98.44
55490;BME280;44029;52.956;4.772;2023-07-02T09:25:45;100925.44;;;25.80;96.23
55490;BME280;44029;52.956;4.772;2023-07-02T09:28:29;100924.28;;;27.35;92.77
55490;BME280;44029;52.956;4.772;2023-07-02T09:30:56;100925.00;;;26.59;90.98
55490;BME280;44029;52.956;4.772;2023-07-02T09:33:27;100933.84;;;25.68;93.37
55490;BME280;44029;52.956;4.772;2023-07-02T09:35:52;100944.13;;;24.51;98.67
55490;BME280;44029;52.956;4.772;2023-07-02T09:38:19;100951.03;;;24.33;100.00
55490;BME280;44029;52.956;4.772;2023-07-02T09:40:52;100936.41;;;25.36;99.43
55490;BME280;44029;52.956;4.772;2023-07-02T09:43:19;100942.78;;;24.16;100.00
55490;BME280;44029;52.956;4.772;2023-07-02T09:45:46;100939.50;;;25.22;100.00
55490;BME280;44029;52.956;4.772;2023-07-02T09:48:16;100932.41;;;25.25;100.00
55490;BME280;44029;52.956;4.772;2023-07-02T09:50:44;100935.47;;;25.57;100.00
55490;BME280;44029;52.956;4.772;2023-07-02T09:53:10;100928.22;;;25.31;100.00
55490;BME280;44029;52.956;4.772;2023-07-02T09:55:37;100938.53;;;25.39;96.23
55490;BME280;44029;52.956;4.772;2023-07-02T09:58:03;100942.50;;;25.05;90.70
55490;BME280;44029;52.956;4.772;2023-07-02T10:00:29;100933.31;;;24.83;93.35
55490;BME280;44029;52.956;4.772;2023-07-02T10:02:54;100941.16;;;24.57;97.19
55490;BME280;44029;52.956;4.772;2023-07-02T10:05:30;100939.84;;;24.75;98.65
55490;BME280;44029;52.956;4.772;2023-07-02T10:07:57;100947.03;;;25.31;100.00
55490;BME280;44029;52.956;4.772;2023-07-02T10:10:30;100936.41;;;25.36;97.98
55490;BME280;44029;52.956;4.772;2023-07-02T10:12:56;100935.03;;;24.97;100.00
55490;BME280;44029;52.956;4.772;2023-07-02T10:15:29;100948.78;;;24.89;100.00
55490;BME280;44029;52.956;4.772;2023-07-02T10:17:59;100936.22;;;25.20;100.00
55490;BME280;44029;52.956;4.772;2023-07-02T10:20:40;100949.38;;;25.53;100.00
55490;BME280;44029;52.956;4.772;2023-07-02T10:23:07;100942.84;;;25.49;98.73
55490;BME280;44029;52.956;4.772;2023-07-02T10:25:37;100944.50;;;24.71;99.31
55490;BME280;44029;52.956;4.772;2023-07-02T10:28:22;100960.00;;;24.47;100.00
55490;BME280;44029;52.956;4.772;2023-07-02T10:30:49;100962.16;;;24.21;100.00
55490;BME280;44029;52.956;4.772;2023-07-02T10:33:18;100965.31;;;24.40;100.00
55490;BME280;44029;52.956;4.772;2023-07-02T10:35:48;100973.28;;;24.08;100.00
55490;BME280;44029;52.956;4.772;2023-07-02T10:38:19;100966.59;;;23.62;100.00
55490;BME280;44029;52.956;4.772;2023-07-02T10:40:45;100962.03;;;22.75;100.00
55490;BME280;44029;52.956;4.772;2023-07-02T10:43:10;100963.81;;;22.97;100.00
55490;BME280;44029;52.956;4.772;2023-07-02T10:45:36;100968.22;;;23.63;100.00
55490;BME280;44029;52.956;4.772;2023-07-02T10:48:11;100967.31;;;23.89;100.00
55490;BME280;44029;52.956;4.772;2023-07-02T10:50:36;100968.88;;;24.49;100.00
55490;BME280;44029;52.956;4.772;2023-07-02T10:53:02;100971.63;;;24.79;100.00
55490;BME280;44029;52.956;4.772;2023-07-02T10:55:28;100972.91;;;24.82;100.00
55490;BME280;44029;52.956;4.772;2023-07-02T10:58:07;100964.72;;;25.10;100.00
55490;BME280;44029;52.956;4.772;2023-07-02T11:00:42;100978.84;;;24.38;100.00
55490;BME280;44029;52.956;4.772;2023-07-02T11:03:22;100973.47;;;25.08;100.00
55490;BME280;44029;52.956;4.772;2023-07-02T11:05:48;100982.66;;;24.12;100.00
55490;BME280;44029;52.956;4.772;2023-07-02T11:08:14;100984.03;;;24.27;100.00
55490;BME280;44029;52.956;4.772;2023-07-02T11:10:40;100980.38;;;24.57;100.00
55490;BME280;44029;52.956;4.772;2023-07-02T11:13:19;100994.28;;;24.23;100.00
55490;BME280;44029;52.956;4.772;2023-07-02T11:15:46;100999.81;;;24.02;100.00
55490;BME280;44029;52.956;4.772;2023-07-02T11:18:12;101000.00;;;24.27;100.00
55490;BME280;44029;52.956;4.772;2023-07-02T11:20:40;100992.22;;;24.96;100.00
55490;BME280;44029;52.956;4.772;2023-07-02T11:23:20;100996.69;;;24.97;100.00
55490;BME280;44029;52.956;4.772;2023-07-02T11:26:00;100995.09;;;24.24;100.00
55490;BME280;44029;52.956;4.772;2023-07-02T11:28:27;100994.75;;;24.46;100.00
55490;BME280;44029;52.956;4.772;2023-07-02T11:30:53;101001.19;;;23.96;100.00
55490;BME280;44029;52.956;4.772;2023-07-02T11:33:20;100997.53;;;24.04;100.00
55490;BME280;44029;52.956;4.772;2023-07-02T11:35:56;100987.44;;;24.12;100.00
55490;BME280;44029;52.956;4.772;2023-07-02T11:38:22;100986.31;;;24.34;100.00
55490;BME280;44029;52.956;4.772;2023-07-02T11:40:47;100985.47;;;24.34;100.00
55490;BME280;44029;52.956;4.772;2023-07-02T11:43:13;101000.06;;;24.39;100.00
55490;BME280;44029;52.956;4.772;2023-07-02T11:45:39;101006.41;;;24.57;100.00
55490;BME280;44029;52.956;4.772;2023-07-02T11:48:04;101001.88;;;24.65;100.00
55490;BME280;44029;52.956;4.772;2023-07-02T11:50:29;101005.50;;;24.86;100.00
55490;BME280;44029;52.956;4.772;2023-07-02T11:52:55;100996.38;;;24.56;100.00
55490;BME280;44029;52.956;4.772;2023-07-02T11:55:21;100988.34;;;24.88;100.00
55490;BME280;44029;52.956;4.772;2023-07-02T11:57:46;100999.56;;;24.88;100.00
55490;BME280;44029;52.956;4.772;2023-07-02T12:00:14;100996.59;;;24.42;100.00
55490;BME280;44029;52.956;4.772;2023-07-02T12:02:40;101000.16;;;24.51;100.00
55490;BME280;44029;52.956;4.772;2023-07-02T12:05:05;101002.19;;;25.05;100.00
55490;BME280;44029;52.956;4.772;2023-07-02T12:07:31;101004.78;;;24.56;100.00
55490;BME280;44029;52.956;4.772;2023-07-02T12:09:56;101010.44;;;24.68;100.00
55490;BME280;44029;52.956;4.772;2023-07-02T12:12:21;101009.97;;;24.16;100.00
55490;BME280;44029;52.956;4.772;2023-07-02T12:14:47;101013.47;;;24.34;99.94
55490;BME280;44029;52.956;4.772;2023-07-02T12:17:12;101002.34;;;23.95;100.00
55490;BME280;44029;52.956;4.772;2023-07-02T12:19:39;101017.63;;;24.27;95.63
55490;BME280;44029;52.956;4.772;2023-07-02T12:22:05;101025.84;;;24.03;97.08
55490;BME280;44029;52.956;4.772;2023-07-02T12:24:30;101017.03;;;24.13;97.84
55490;BME280;44029;52.956;4.772;2023-07-02T12:26:56;101024.16;;;24.10;100.00
55490;BME280;44029;52.956;4.772;2023-07-02T12:29:21;101025.94;;;24.66;98.90
55490;BME280;44029;52.956;4.772;2023-07-02T12:31:46;101018.78;;;24.56;97.69
55490;BME280;44029;52.956;4.772;2023-07-02T12:34:12;101021.13;;;24.45;98.86
55490;BME280;44029;52.956;4.772;2023-07-02T12:36:37;101028.03;;;24.48;99.49
55490;BME280;44029;52.956;4.772;2023-07-02T12:39:03;101031.63;;;24.78;97.03
55490;BME280;44029;52.956;4.772;2023-07-02T12:41:28;101032.16;;;24.72;97.42